Time;durP1;ratioP1;P1;durP2;ratioP2;P2;SDS_P1;SDS_P2;PMS_P1;PMS_P2;Temp;Humidity;BMP_temperature;BMP_pressure;BME280_temperature;BME280_humidity;BME280_pressure;Samples;Min_cycle;Max_cycle;Signal;HPM_P1;HPM_P2
2024/02/05 00:01:19;;;;;;;29.75;19.58;;;;;;;4.79;100.00;98780.13;5055185;28;20094;-65
2024/02/05 00:03:45;;;;;;;38.65;23.05;;;;;;;4.86;100.00;98874.75;5063328;28;20067;-67
2024/02/05 00:06:12;;;;;;;30.42;20.17;;;;;;;3.99;100.00;98688.94;5055973;28;20056;-68
2024/02/05 00:08:38;;;;;;;33.10;21.83;;;;;;;5.47;100.00;98819.47;5057933;28;20063;-66
2024/02/05 00:11:05;;;;;;;30.17;20.75;;;;;;;5.17;100.00;98820.25;5062258;28;20053;-69
2024/02/05 00:13:31;;;;;;;33.25;22.25;;;;;;;4.58;100.00;98693.38;5060941;28;20021;-66
2024/02/05 00:15:56;;;;;;;30.42;21.85;;;;;;;5.08;100.00;98677.78;5050327;28;20562;-66
2024/02/05 00:18:24;;;;;;;32.10;23.08;;;;;;;4.94;100.00;98674.81;5058891;28;20116;-65
2024/02/05 00:20:50;;;;;;;34.53;24.05;;;;;;;5.16;100.00;98801.00;5057498;28;20469;-66
2024/02/05 00:23:15;;;;;;;34.42;22.70;;;;;;;5.09;100.00;98761.72;5056139;28;20032;-66
2024/02/05 00:25:41;;;;;;;33.03;23.33;;;;;;;4.86;100.00;98686.78;5055860;28;20075;-70
2024/02/05 00:28:07;;;;;;;33.47;23.30;;;;;;;4.97;100.00;98696.59;5061771;28;21173;-70
2024/02/05 00:30:33;;;;;;;34.55;24.30;;;;;;;4.95;100.00;98626.09;5057395;28;20035;-65
2024/02/05 00:32:59;;;;;;;35.58;23.98;;;;;;;4.51;100.00;98543.47;5058022;28;20032;-65
2024/02/05 00:35:24;;;;;;;32.17;24.33;;;;;;;4.43;100.00;98520.19;5056517;28;20020;-66
2024/02/05 00:37:50;;;;;;;31.75;23.35;;;;;;;4.60;100.00;98661.44;5053755;28;20041;-66
2024/02/05 00:40:16;;;;;;;25.80;19.75;;;;;;;4.95;100.00;98588.34;5064639;28;20035;-66
2024/02/05 00:42:43;;;;;;;26.38;17.55;;;;;;;4.88;100.00;98581.84;5057890;28;20110;-66
2024/02/05 00:45:09;;;;;;;22.60;17.30;;;;;;;5.09;100.00;98588.78;5054883;28;20508;-70
2024/02/05 00:47:34;;;;;;;23.35;16.33;;;;;;;5.02;100.00;98567.19;5061056;28;20032;-66
2024/02/05 00:50:00;;;;;;;20.90;15.88;;;;;;;4.57;100.00;98492.97;5060955;28;20028;-67
2024/02/05 00:52:27;;;;;;;21.45;15.52;;;;;;;4.80;100.00;98550.19;5058642;28;20506;-66
2024/02/05 00:54:53;;;;;;;20.00;15.02;;;;;;;5.10;100.00;98535.03;5056007;28;20578;-65
2024/02/05 00:57:19;;;;;;;21.25;15.30;;;;;;;4.19;100.00;98659.13;5054580;28;20525;-66
2024/02/05 00:59:45;;;;;;;20.20;15.10;;;;;;;4.22;100.00;98598.69;5062122;28;20146;-66
2024/02/05 01:02:10;;;;;;;16.27;13.05;;;;;;;3.67;100.00;98390.69;5060773;28;20036;-66
2024/02/05 01:04:37;;;;;;;18.52;13.32;;;;;;;4.27;100.00;98316.09;5060256;28;20033;-66
2024/02/05 01:07:03;;;;;;;17.52;13.05;;;;;;;4.34;100.00;98448.31;5060927;28;20053;-66
2024/02/05 01:09:29;;;;;;;17.85;13.23;;;;;;;4.93;100.00;98421.41;5053657;28;20159;-66
2024/02/05 01:11:54;;;;;;;17.50;13.35;;;;;;;3.97;100.00;98319.50;5054159;28;20233;-66
2024/02/05 01:14:20;;;;;;;21.15;12.93;;;;;;;4.03;100.00;98338.59;5056976;28;20025;-67
2024/02/05 01:16:46;;;;;;;17.65;14.05;;;;;;;3.99;100.00;98332.84;5054229;28;20029;-67
2024/02/05 01:19:12;;;;;;;18.85;13.90;;;;;;;4.74;100.00;98440.47;5060308;28;20024;-67
2024/02/05 01:21:37;;;;;;;19.63;14.70;;;;;;;4.64;100.00;98381.22;5060384;28;20047;-66
2024/02/05 01:24:03;;;;;;;21.02;14.63;;;;;;;4.90;100.00;98375.38;5054023;28;20553;-66
2024/02/05 01:26:29;;;;;;;18.67;14.20;;;;;;;4.25;100.00;98285.16;5053575;28;20095;-68
2024/02/05 01:28:55;;;;;;;17.38;14.43;;;;;;;4.68;100.00;98361.81;5066475;28;20032;-65
2024/02/05 01:31:21;;;;;;;21.02;15.98;;;;;;;4.35;100.00;98310.84;5057662;28;20185;-65
2024/02/05 01:33:46;;;;;;;22.33;16.15;;;;;;;4.38;100.00;98197.56;5065720;28;20040;-67
2024/02/05 01:36:12;;;;;;;22.40;16.95;;;;;;;4.93;100.00;98247.72;5053366;28;20475;-71
2024/02/05 01:38:38;;;;;;;23.08;17.50;;;;;;;4.65;100.00;98244.50;5057165;28;20462;-67
2024/02/05 01:41:04;;;;;;;21.23;17.25;;;;;;;3.73;100.00;98096.59;5060008;28;20028;-67
2024/02/05 01:43:29;;;;;;;21.40;16.25;;;;;;;4.17;100.00;98188.19;5060170;28;20051;-67
2024/02/05 01:45:56;;;;;;;20.85;16.48;;;;;;;4.12;100.00;98192.56;5059474;28;20063;-67
2024/02/05 01:48:24;;;;;;;20.70;15.93;;;;;;;4.23;100.00;98205.59;5059810;28;20188;-67
2024/02/05 01:50:51;;;;;;;19.25;15.18;;;;;;;4.25;100.00;98256.66;5058282;28;20076;-68
2024/02/05 01:53:18;;;;;;;21.90;14.93;;;;;;;4.69;100.00;98340.81;5058722;28;20033;-66
2024/02/05 01:55:47;;;;;;;20.88;15.30;;;;;;;4.58;100.00;98287.47;5051814;28;20514;-67
2024/02/05 01:58:13;;;;;;;20.90;15.35;;;;;;;4.56;100.00;98284.19;5060840;28;20539;-66
2024/02/05 02:00:38;;;;;;;23.50;15.95;;;;;;;4.11;100.00;98200.97;5056259;28;20034;-66
2024/02/05 02:03:04;;;;;;;22.98;16.92;;;;;;;3.95;100.00;98125.22;5059201;28;20064;-66
2024/02/05 02:05:30;;;;;;;22.70;16.25;;;;;;;3.65;100.00;98163.84;5055394;28;20036;-70
2024/02/05 02:07:56;;;;;;;36.88;23.83;;;;;;;3.75;100.00;98144.28;5053154;28;20029;-65
2024/02/05 02:10:22;;;;;;;36.40;24.45;;;;;;;4.42;100.00;98289.66;5057468;28;20111;-66
2024/02/05 02:12:47;;;;;;;28.67;19.38;;;;;;;4.32;100.00;98270.69;5056897;28;20033;-65
2024/02/05 02:15:13;;;;;;;30.48;20.30;;;;;;;3.51;100.00;98153.38;5059833;28;20028;-66
2024/02/05 02:17:47;;;;;;;30.75;20.67;;;;;;;3.84;100.00;98164.94;5047699;28;20106;-65
2024/02/05 02:20:13;;;;;;;37.83;24.60;;;;;;;3.44;100.00;98197.94;5054008;28;20039;-65
2024/02/05 02:22:57;;;;;;;39.08;25.67;;;;;;;4.47;100.00;98242.56;5058854;28;20465;-65
2024/02/05 02:25:23;;;;;;;33.45;22.98;;;;;;;4.24;100.00;98249.97;5058498;28;20033;-69
2024/02/05 02:27:49;;;;;;;25.77;18.17;;;;;;;4.21;100.00;98276.06;5061057;28;20033;-66
2024/02/05 02:30:18;;;;;;;24.70;17.35;;;;;;;3.97;100.00;98120.13;5064015;28;20039;-66
2024/02/05 02:32:47;;;;;;;26.58;17.73;;;;;;;4.57;100.00;98253.16;5058344;28;20177;-66
2024/02/05 02:35:22;;;;;;;29.55;20.10;;;;;;;4.46;100.00;98257.72;5063680;28;20039;-65
2024/02/05 02:38:00;;;;;;;30.05;19.90;;;;;;;4.28;100.00;98163.53;5059032;28;20400;-66
2024/02/05 02:40:29;;;;;;;27.48;18.30;;;;;;;4.31;100.00;98256.47;5058665;28;20064;-66
2024/02/05 02:43:03;;;;;;;22.25;14.95;;;;;;;4.14;100.00;98141.34;5059471;28;20029;-66
2024/02/05 02:45:30;;;;;;;21.83;15.07;;;;;;;4.24;100.00;98157.78;5058476;28;20033;-66
2024/02/05 02:47:56;;;;;;;23.40;16.30;;;;;;;3.79;100.00;98091.38;5058901;28;20494;-66
2024/02/05 02:50:22;;;;;;;24.00;16.17;;;;;;;4.12;100.00;98097.84;5066277;28;20025;-67
2024/02/05 02:52:47;;;;;;;23.60;15.65;;;;;;;4.01;100.00;98116.66;5059453;28;20048;-68
2024/02/05 02:55:14;;;;;;;23.20;14.98;;;;;;;3.96;100.00;98071.56;5056948;28;20132;-65
2024/02/05 02:57:40;;;;;;;25.73;15.73;;;;;;;3.64;100.00;98127.03;5053516;28;20445;-67
2024/02/05 03:00:09;;;;;;;28.17;17.92;;;;;;;4.47;100.00;98172.13;5053393;28;20116;-66
2024/02/05 03:02:35;;;;;;;32.00;19.63;;;;;;;4.61;100.00;98197.66;5061525;28;20032;-67
2024/02/05 03:05:02;;;;;;;29.08;19.95;;;;;;;4.52;100.00;98227.28;5063069;28;20040;-67
2024/02/05 03:07:27;;;;;;;25.35;15.27;;;;;;;4.07;100.00;98036.03;5063099;28;20021;-67
2024/02/05 03:09:54;;;;;;;18.58;13.90;;;;;;;4.00;100.00;98017.00;5062448;28;20031;-67
2024/02/05 03:12:20;;;;;;;21.50;14.38;;;;;;;4.09;100.00;98035.09;5058869;28;20035;-68
2024/02/05 03:14:45;;;;;;;23.92;16.40;;;;;;;4.54;100.00;98150.09;5055644;28;20036;-67
2024/02/05 03:17:11;;;;;;;39.45;24.92;;;;;;;4.61;100.00;98112.13;5057873;28;20063;-66
2024/02/05 03:19:36;;;;;;;42.05;25.85;;;;;;;4.59;100.00;98108.00;5058148;28;20035;-68
2024/02/05 03:22:03;;;;;;;43.88;28.58;;;;;;;3.96;100.00;98012.97;5058293;28;20036;-66
2024/02/05 03:24:28;;;;;;;49.75;30.17;;;;;;;4.56;100.00;98129.06;5056950;28;20106;-67
2024/02/05 03:26:54;;;;;;;42.78;30.27;;;;;;;4.61;100.00;98132.25;5058241;28;20052;-67
2024/02/05 03:29:19;;;;;;;29.38;19.48;;;;;;;4.53;100.00;98103.19;5062690;28;20462;-71
2024/02/05 03:31:45;;;;;;;23.13;14.98;;;;;;;4.62;100.00;98073.50;5057909;28;20028;-66
2024/02/05 03:34:10;;;;;;;28.52;18.52;;;;;;;4.33;100.00;98021.72;5057222;28;20032;-66
2024/02/05 03:36:36;;;;;;;20.17;14.10;;;;;;;4.17;100.00;97987.09;5058072;28;20029;-67
2024/02/05 03:39:03;;;;;;;19.65;13.52;;;;;;;4.73;100.00;98091.56;5055557;28;20029;-66
2024/02/05 03:41:29;;;;;;;25.80;17.00;;;;;;;3.73;100.00;97965.97;5058278;28;20486;-67
2024/02/05 03:43:54;;;;;;;24.77;17.70;;;;;;;4.40;100.00;98068.38;5065415;28;20048;-68
2024/02/05 03:46:20;;;;;;;26.33;18.05;;;;;;;4.76;100.00;98061.25;5059151;28;20040;-67
2024/02/05 03:48:54;;;;;;;23.90;14.38;;;;;;;4.94;100.00;98058.06;5055777;28;20040;-67
2024/02/05 03:51:20;;;;;;;18.45;13.70;;;;;;;3.97;100.00;97946.72;5057479;28;20044;-66
2024/02/05 03:53:45;;;;;;;18.35;11.75;;;;;;;4.63;100.00;98150.63;5058051;28;20047;-66
2024/02/05 03:56:12;;;;;;;29.50;18.60;;;;;;;4.31;100.00;98123.22;5056178;28;20511;-66
2024/02/05 03:58:38;;;;;;;31.55;19.65;;;;;;;4.52;100.00;98072.16;5058281;28;20419;-68
2024/02/05 04:01:04;;;;;;;27.27;18.63;;;;;;;4.00;100.00;97907.22;5058673;28;20546;-68
2024/02/05 04:03:30;;;;;;;27.83;17.50;;;;;;;3.34;100.00;97890.28;5056781;28;20707;-67
2024/02/05 04:05:57;;;;;;;25.88;17.85;;;;;;;4.53;100.00;98073.81;5057192;28;20025;-67
2024/02/05 04:08:24;;;;;;;21.63;14.23;;;;;;;4.48;100.00;98012.78;5059859;28;20033;-70
2024/02/05 04:10:51;;;;;;;26.95;14.77;;;;;;;4.56;100.00;98003.28;5055336;28;20111;-67
2024/02/05 04:13:16;;;;;;;20.20;13.43;;;;;;;4.01;100.00;97945.75;5060068;28;20446;-67
2024/02/05 04:15:42;;;;;;;20.60;13.15;;;;;;;4.34;100.00;98042.63;5060673;28;20025;-67
2024/02/05 04:18:08;;;;;;;22.05;15.45;;;;;;;4.12;100.00;97968.84;5054255;28;20047;-68
2024/02/05 04:20:33;;;;;;;21.00;13.68;;;;;;;3.43;100.00;97864.84;5049619;28;20025;-67
2024/02/05 04:22:59;;;;;;;26.33;14.07;;;;;;;4.31;100.00;97963.09;5058891;28;20404;-67
2024/02/05 04:25:24;;;;;;;19.80;13.38;;;;;;;4.57;100.00;98077.06;5054036;28;20502;-69
2024/02/05 04:27:50;;;;;;;16.40;12.52;;;;;;;3.82;100.00;97922.97;5048666;28;20040;-71
2024/02/05 04:30:26;;;;;;;16.70;12.07;;;;;;;4.67;100.00;98041.47;5052530;28;20051;-69
2024/02/05 04:32:53;;;;;;;18.88;14.27;;;;;;;4.57;100.00;98006.63;5054053;28;20040;-69
2024/02/05 04:35:18;;;;;;;21.55;14.02;;;;;;;3.99;100.00;97960.06;5053936;28;20124;-69
2024/02/05 04:37:44;;;;;;;21.65;14.73;;;;;;;4.70;100.00;98076.56;5052992;28;20170;-69
2024/02/05 04:40:09;;;;;;;22.77;17.17;;;;;;;4.78;100.00;98019.22;5052955;28;20041;-69
2024/02/05 04:42:35;;;;;;;28.83;19.25;;;;;;;4.65;100.00;98018.06;5052405;28;20033;-69
2024/02/05 04:45:01;;;;;;;37.25;22.30;;;;;;;4.74;100.00;98049.59;5049091;28;20122;-68
2024/02/05 04:47:26;;;;;;;29.80;21.80;;;;;;;4.95;100.00;98013.59;5052909;28;20049;-70
2024/02/05 04:49:52;;;;;;;41.83;24.95;;;;;;;4.87;100.00;98003.00;5052708;28;20061;-70
2024/02/05 04:52:18;;;;;;;33.28;21.80;;;;;;;4.16;100.00;97977.91;5055023;28;20490;-67
2024/02/05 04:54:44;;;;;;;46.05;24.05;;;;;;;4.66;100.00;98018.84;5057412;28;20056;-67
2024/02/05 04:57:09;;;;;;;54.45;34.60;;;;;;;4.72;100.00;98042.09;5059251;28;20036;-66
2024/02/05 04:59:35;;;;;;;52.47;33.63;;;;;;;4.62;100.00;98055.88;5047768;28;20117;-71
2024/02/05 05:02:01;;;;;;;57.72;35.70;;;;;;;4.05;100.00;97939.75;5051802;28;20561;-69
2024/02/05 05:04:29;;;;;;;55.58;35.53;;;;;;;4.63;100.00;98039.94;5050952;28;20025;-69
2024/02/05 05:06:54;;;;;;;45.22;31.48;;;;;;;3.86;100.00;97855.84;5051104;28;20039;-67
2024/02/05 05:09:20;;;;;;;41.38;29.33;;;;;;;3.95;100.00;97900.72;5051914;28;20029;-67
2024/02/05 05:11:45;;;;;;;44.20;30.13;;;;;;;4.92;100.00;98062.34;5052237;28;20091;-68
2024/02/05 05:14:11;;;;;;;37.58;25.60;;;;;;;4.20;100.00;97986.97;5052881;28;20039;-69
2024/02/05 05:16:37;;;;;;;46.92;28.65;;;;;;;4.32;100.00;97984.84;5051280;28;20033;-69
2024/02/05 05:19:02;;;;;;;37.22;26.05;;;;;;;4.90;100.00;98066.59;5048212;28;20029;-69
2024/02/05 05:21:28;;;;;;;36.25;23.92;;;;;;;5.06;100.00;98011.47;5051346;28;20036;-69
2024/02/05 05:23:54;;;;;;;33.40;23.10;;;;;;;5.07;100.00;98021.47;5052854;28;20106;-72
2024/02/05 05:26:21;;;;;;;33.83;22.40;;;;;;;5.09;100.00;98071.81;5052622;28;20499;-68
2024/02/05 05:28:48;;;;;;;30.70;21.90;;;;;;;5.35;100.00;98018.72;5052685;28;20224;-68
2024/02/05 05:31:16;;;;;;;33.88;23.67;;;;;;;4.40;100.00;97954.38;5052238;28;20031;-69
2024/02/05 05:33:43;;;;;;;33.88;23.60;;;;;;;5.32;100.00;98039.00;5050372;28;20079;-67
2024/02/05 05:36:09;;;;;;;43.05;26.00;;;;;;;4.05;100.00;97851.78;5052835;28;20028;-69
2024/02/05 05:38:34;;;;;;;40.17;29.20;;;;;;;5.09;100.00;98092.75;5050185;28;20116;-67
2024/02/05 05:41:00;;;;;;;38.92;27.33;;;;;;;5.29;100.00;98044.97;5055006;28;20123;-67
2024/02/05 05:43:25;;;;;;;49.47;31.80;;;;;;;5.42;100.00;98015.09;5058349;28;20478;-67
2024/02/05 05:45:51;;;;;;;85.47;53.95;;;;;;;5.03;100.00;98055.19;5052237;28;20472;-68
2024/02/05 05:48:16;;;;;;;87.28;54.42;;;;;;;5.17;100.00;98110.09;5061235;28;20418;-68
2024/02/05 05:50:42;;;;;;;62.15;40.72;;;;;;;4.79;100.00;98101.41;5052940;28;20500;-69
2024/02/05 05:53:08;;;;;;;67.55;46.20;;;;;;;3.95;100.00;97923.34;5057170;28;20747;-68
2024/02/05 05:55:33;;;;;;;65.20;46.08;;;;;;;4.89;100.00;97997.00;5057684;28;20068;-67
2024/02/05 05:57:59;;;;;;;50.72;37.13;;;;;;;4.40;100.00;97995.47;5058833;28;20483;-67
2024/02/05 06:00:24;;;;;;;55.78;42.05;;;;;;;5.35;100.00;98018.72;5060853;28;20083;-67
2024/02/05 06:02:50;;;;;;;46.75;35.90;;;;;;;6.93;100.00;97746.06;5062962;28;20029;-66
2024/02/05 06:05:15;;;;;;;54.58;37.38;;;;;;;6.22;100.00;98031.19;5062014;28;20028;-67
2024/02/05 06:07:41;;;;;;;58.40;42.40;;;;;;;5.32;100.00;97887.91;5062937;28;20059;-67
2024/02/05 06:10:08;;;;;;;52.50;37.58;;;;;;;6.03;100.00;97894.97;5061666;28;20107;-66
2024/02/05 06:12:33;;;;;;;33.75;26.55;;;;;;;5.86;100.00;98031.00;5056764;28;20033;-66
2024/02/05 06:14:59;;;;;;;46.03;35.90;;;;;;;5.39;100.00;98117.69;5055109;28;20116;-71
2024/02/05 06:17:24;;;;;;;53.83;41.85;;;;;;;5.24;100.00;97998.19;5060573;28;20036;-67
2024/02/05 06:19:50;;;;;;;50.95;39.10;;;;;;;5.62;100.00;98160.47;5069203;28;20058;-70
2024/02/05 06:22:15;;;;;;;45.00;31.73;;;;;;;5.46;100.00;98166.97;5081480;28;20032;-68
2024/02/05 06:24:41;;;;;;;34.40;26.27;;;;;;;4.73;100.00;98084.03;5069837;28;20043;-67
2024/02/05 06:27:07;;;;;;;36.08;26.30;;;;;;;5.95;100.00;98112.13;5059343;28;20027;-68
2024/02/05 06:29:34;;;;;;;29.58;22.30;;;;;;;5.19;100.00;98090.69;5056294;28;20040;-68
2024/02/05 06:31:59;;;;;;;32.33;22.00;;;;;;;4.90;100.00;98094.28;5062682;28;20036;-70
2024/02/05 06:34:25;;;;;;;29.20;19.13;;;;;;;6.08;100.00;98140.22;5061527;28;20411;-66
2024/02/05 06:36:50;;;;;;;38.85;27.35;;;;;;;5.85;100.00;97979.78;5059124;28;20036;-66
2024/02/05 06:39:16;;;;;;;40.40;31.77;;;;;;;6.43;100.00;98139.59;5061836;28;20040;-65
2024/02/05 06:41:41;;;;;;;36.05;27.52;;;;;;;8.02;100.00;97880.31;5059582;28;20036;-67
2024/02/05 06:44:07;;;;;;;43.08;30.65;;;;;;;8.21;100.00;98037.06;5060217;28;20033;-67
2024/02/05 06:46:33;;;;;;;45.13;33.03;;;;;;;8.92;100.00;97987.78;5060767;28;20111;-66
2024/02/05 06:48:58;;;;;;;47.63;30.92;;;;;;;8.66;100.00;98085.41;5058896;28;20032;-67
2024/02/05 06:51:24;;;;;;;43.13;28.85;;;;;;;8.93;100.00;98129.63;5058509;28;20028;-65
2024/02/05 06:53:49;;;;;;;216.68;123.93;;;;;;;8.02;100.00;98191.50;5055516;28;20025;-67
2024/02/05 06:56:15;;;;;;;34.17;22.90;;;;;;;7.88;100.00;98166.81;5062294;28;20450;-65
2024/02/05 06:58:41;;;;;;;30.42;20.75;;;;;;;7.57;100.00;98391.59;5066167;28;20033;-67
2024/02/05 07:01:06;;;;;;;58.88;35.67;;;;;;;8.22;100.00;98479.88;5063081;28;20051;-66
2024/02/05 07:03:32;;;;;;;49.53;30.50;;;;;;;8.17;100.00;98446.38;5059270;28;20103;-66
2024/02/05 07:05:57;;;;;;;40.83;29.30;;;;;;;7.42;100.00;98657.66;5060536;28;20024;-68
2024/02/05 07:08:23;;;;;;;34.92;23.00;;;;;;;8.49;100.00;98490.56;5054348;28;20044;-70
2024/02/05 07:10:48;;;;;;;26.48;18.63;;;;;;;7.89;100.00;98435.78;5055383;28;20115;-66
2024/02/05 07:13:14;;;;;;;22.73;17.08;;;;;;;8.54;100.00;98514.81;5055154;28;20029;-66
2024/02/05 07:15:39;;;;;;;16.02;10.85;;;;;;;7.40;100.00;98476.59;5064347;28;20025;-66
2024/02/05 07:18:05;;;;;;;16.42;11.40;;;;;;;7.79;100.00;98517.97;5061732;28;20032;-66
2024/02/05 07:20:31;;;;;;;16.30;10.57;;;;;;;8.77;100.00;98588.97;5056444;28;20029;-65
2024/02/05 07:22:56;;;;;;;21.17;13.93;;;;;;;8.89;100.00;98531.00;5057590;28;20028;-66
2024/02/05 07:25:22;;;;;;;15.70;11.02;;;;;;;7.93;100.00;98509.81;5057980;28;20025;-67
2024/02/05 07:27:48;;;;;;;15.38;10.77;;;;;;;8.66;100.00;98447.59;5057200;28;20119;-66
2024/02/05 07:30:13;;;;;;;20.38;13.88;;;;;;;8.49;100.00;98498.16;5059771;28;20052;-67
2024/02/05 07:32:39;;;;;;;17.77;13.50;;;;;;;9.10;100.00;98600.16;5059262;28;20029;-67
2024/02/05 07:35:05;;;;;;;10.55;8.27;;;;;;;8.48;100.00;98696.53;5065065;28;20060;-72
2024/02/05 07:37:33;;;;;;;12.77;10.18;;;;;;;8.60;100.00;98579.56;5058894;28;20419;-67
2024/02/05 07:39:59;;;;;;;12.07;9.55;;;;;;;9.19;100.00;98625.94;5059953;28;20024;-70
2024/02/05 07:42:25;;;;;;;16.38;11.32;;;;;;;9.67;100.00;98620.34;5060320;28;20114;-67
2024/02/05 07:44:51;;;;;;;16.33;12.15;;;;;;;9.72;100.00;98604.94;5058476;28;20112;-66
2024/02/05 07:47:16;;;;;;;13.68;9.48;;;;;;;9.41;100.00;98578.44;5059586;28;20039;-66
2024/02/05 07:49:42;;;;;;;10.52;8.30;;;;;;;9.25;100.00;98596.97;5062367;28;20035;-67
2024/02/05 07:52:08;;;;;;;12.70;8.60;;;;;;;9.10;100.00;98648.31;5056750;28;20040;-66
2024/02/05 07:54:33;;;;;;;15.23;9.90;;;;;;;9.97;100.00;98722.16;5059730;28;20024;-66
2024/02/05 07:57:02;;;;;;;11.23;9.15;;;;;;;9.09;100.00;98892.56;5052788;28;20024;-65
2024/02/05 07:59:28;;;;;;;14.13;10.25;;;;;;;9.76;100.00;98779.81;5062319;28;20024;-65
2024/02/05 08:01:54;;;;;;;10.68;7.18;;;;;;;8.92;100.00;98697.25;5059280;28;20029;-70
2024/02/05 08:04:20;;;;;;;11.82;9.13;;;;;;;9.39;100.00;98843.13;5060941;28;20029;-66
2024/02/05 08:06:46;;;;;;;12.68;9.25;;;;;;;9.73;100.00;98767.25;5060927;28;20029;-66
2024/02/05 08:09:12;;;;;;;11.50;8.70;;;;;;;9.48;100.00;98764.97;5058408;28;20037;-67
2024/02/05 08:11:39;;;;;;;14.52;9.90;;;;;;;9.69;100.00;98892.59;5059624;28;20035;-68
2024/02/05 08:14:06;;;;;;;16.50;9.07;;;;;;;9.31;100.00;98708.25;5062718;28;20606;-67
2024/02/05 08:16:32;;;;;;;14.38;9.15;;;;;;;9.31;100.00;98728.53;5055746;28;20415;-67
2024/02/05 08:18:58;;;;;;;31.02;15.35;;;;;;;8.98;100.00;98638.72;5057842;28;20033;-67
2024/02/05 08:21:23;;;;;;;15.50;10.93;;;;;;;9.57;100.00;98733.28;5060890;28;20033;-67
2024/02/05 08:23:51;;;;;;;15.60;10.50;;;;;;;9.76;100.00;98674.94;5057578;28;20402;-66
2024/02/05 08:26:19;;;;;;;16.95;10.05;;;;;;;9.56;100.00;98696.97;5058786;28;20403;-68
2024/02/05 08:28:46;;;;;;;14.32;9.13;;;;;;;9.79;100.00;98678.16;5063328;28;20041;-71
2024/02/05 08:31:12;;;;;;;12.70;8.60;;;;;;;10.60;100.00;98767.44;5061699;28;20036;-72
2024/02/05 08:33:37;;;;;;;11.35;7.32;;;;;;;10.61;100.00;98769.13;5060869;28;20028;-67
2024/02/05 08:36:03;;;;;;;8.43;6.57;;;;;;;10.77;100.00;98756.50;5061461;28;20032;-67
2024/02/05 08:38:28;;;;;;;15.85;8.00;;;;;;;10.92;100.00;98720.13;5059049;28;20466;-68
2024/02/05 08:40:56;;;;;;;15.27;7.32;;;;;;;10.50;100.00;98651.91;5057420;28;20067;-67
2024/02/05 08:43:22;;;;;;;16.58;11.02;;;;;;;10.42;100.00;98677.69;5057013;28;20036;-68
2024/02/05 08:45:48;;;;;;;17.77;9.23;;;;;;;11.18;100.00;98669.63;5053319;28;20040;-68
2024/02/05 08:48:14;;;;;;;18.58;11.10;;;;;;;11.17;100.00;98673.03;5054954;28;20031;-67
2024/02/05 08:50:39;;;;;;;13.30;8.00;;;;;;;11.31;100.00;98705.41;5057422;28;20415;-69
2024/02/05 08:53:05;;;;;;;14.82;9.95;;;;;;;11.25;100.00;98711.63;5057165;28;20063;-66
2024/02/05 08:55:31;;;;;;;11.35;7.80;;;;;;;10.50;100.00;98606.19;5063411;28;20136;-66
2024/02/05 08:57:57;;;;;;;13.40;9.00;;;;;;;10.95;100.00;98570.00;5057576;28;20419;-67
2024/02/05 09:00:25;;;;;;;16.25;8.52;;;;;;;11.64;100.00;98652.75;5063851;28;20108;-67
2024/02/05 09:02:53;;;;;;;14.35;6.97;;;;;;;11.97;100.00;98671.31;5056245;28;20503;-72
2024/02/05 09:05:19;;;;;;;20.02;12.32;;;;;;;11.54;100.00;98674.50;5061843;28;20499;-66
2024/02/05 09:07:45;;;;;;;14.18;10.88;;;;;;;11.78;100.00;98772.53;5060005;28;20037;-67
2024/02/05 09:10:10;;;;;;;19.90;11.18;;;;;;;11.81;100.00;98680.69;5061092;28;20091;-66
2024/02/05 09:12:36;;;;;;;25.85;15.00;;;;;;;11.49;100.00;98541.59;5061332;28;20487;-66
2024/02/05 09:15:03;;;;;;;15.40;8.18;;;;;;;12.56;100.00;98779.31;5062951;28;20064;-67
2024/02/05 09:17:30;;;;;;;9.55;6.78;;;;;;;12.33;100.00;98680.38;5056845;28;20075;-66
2024/02/05 09:19:55;;;;;;;11.32;8.27;;;;;;;12.38;100.00;98660.56;5056937;28;20594;-66
2024/02/05 09:22:21;;;;;;;14.50;8.65;;;;;;;12.88;100.00;98701.81;5058312;28;20120;-67
2024/02/05 09:24:46;;;;;;;16.70;11.60;;;;;;;12.82;100.00;98720.03;5058027;28;20094;-67
2024/02/05 09:27:12;;;;;;;9.23;7.22;;;;;;;13.53;100.00;98851.97;5055461;28;20025;-71
2024/02/05 09:29:37;;;;;;;18.63;12.85;;;;;;;12.97;100.00;98849.28;5056567;28;20037;-67
2024/02/05 09:32:05;;;;;;;15.00;8.18;;;;;;;14.00;100.00;98715.50;5059466;28;20082;-68
2024/02/05 09:34:31;;;;;;;7.50;4.95;;;;;;;14.69;100.00;98696.53;5056573;28;20094;-67
2024/02/05 09:36:57;;;;;;;8.40;4.35;;;;;;;15.04;100.00;98662.63;5055877;28;20033;-68
2024/02/05 09:39:22;;;;;;;9.65;6.00;;;;;;;15.98;100.00;98721.84;5051030;28;20032;-68
2024/02/05 09:41:50;;;;;;;5.72;3.30;;;;;;;16.84;100.00;98840.53;5057403;28;20036;-67
2024/02/05 09:44:16;;;;;;;5.38;2.20;;;;;;;16.90;100.00;99033.50;5057659;28;20033;-68
2024/02/05 09:46:52;;;;;;;9.30;2.70;;;;;;;17.04;100.00;99156.63;5054408;28;20025;-67
2024/02/05 09:49:18;;;;;;;7.88;3.05;;;;;;;17.81;100.00;99327.88;5051924;28;20041;-66
2024/02/05 09:51:44;;;;;;;13.73;3.05;;;;;;;17.15;100.00;99322.91;5058167;28;20094;-66
2024/02/05 09:54:13;;;;;;;5.00;2.40;;;;;;;17.40;100.00;99378.63;5064040;28;20458;-67
2024/02/05 09:56:38;;;;;;;5.15;2.10;;;;;;;18.03;100.00;99503.00;5056425;28;20049;-67
2024/02/05 09:59:04;;;;;;;7.60;2.15;;;;;;;17.92;100.00;99495.16;5058743;28;20376;-67
2024/02/05 10:01:32;;;;;;;11.52;2.30;;;;;;;17.84;100.00;99516.25;5057709;28;20037;-67
2024/02/05 10:03:59;;;;;;;6.15;2.25;;;;;;;17.49;100.00;99486.81;5061291;28;20488;-67
2024/02/05 10:06:31;;;;;;;7.97;1.90;;;;;;;17.80;100.00;99442.78;5060570;28;20104;-68
2024/02/05 10:09:01;;;;;;;5.82;2.80;;;;;;;17.87;100.00;99479.19;5056597;28;20041;-68
2024/02/05 10:11:29;;;;;;;7.50;2.17;;;;;;;17.70;100.00;99464.06;5067700;28;20033;-72
2024/02/05 10:13:55;;;;;;;7.05;2.05;;;;;;;18.36;100.00;99593.41;5069344;28;20029;-69
2024/02/05 10:16:22;;;;;;;2.53;1.80;;;;;;;17.99;100.00;99453.50;5053060;28;20052;-67
2024/02/05 10:18:48;;;;;;;5.88;2.00;;;;;;;18.67;100.00;99531.25;5060869;28;20060;-67
2024/02/05 10:21:14;;;;;;;3.33;1.55;;;;;;;18.32;100.00;99490.78;5059912;28;20040;-67
2024/02/05 10:23:39;;;;;;;4.72;1.92;;;;;;;18.87;100.00;99565.94;5041006;28;20037;-67
2024/02/05 10:26:08;;;;;;;3.45;1.70;;;;;;;18.30;100.00;99460.00;5053314;28;20124;-67
2024/02/05 10:28:37;;;;;;;3.63;2.00;;;;;;;18.96;100.00;99550.69;5053745;28;20121;-65
2024/02/05 10:31:04;;;;;;;5.80;2.00;;;;;;;18.50;100.00;99487.78;5034721;28;20053;-66
2024/02/05 10:33:30;;;;;;;4.28;1.70;;;;;;;19.07;100.00;99580.03;5058770;28;20032;-67
2024/02/05 10:35:55;;;;;;;3.15;1.35;;;;;;;19.33;100.00;99563.63;5051017;28;20029;-68
2024/02/05 10:38:25;;;;;;;5.53;2.30;;;;;;;19.18;100.00;99593.81;5054867;28;20479;-67
2024/02/05 10:40:51;;;;;;;3.33;2.10;;;;;;;19.44;100.00;99554.19;5054519;28;20099;-67
2024/02/05 10:43:17;;;;;;;4.63;2.00;;;;;;;19.19;100.00;99586.91;5059884;28;20102;-66
2024/02/05 10:45:43;;;;;;;3.70;2.63;;;;;;;19.26;100.00;99528.84;5056490;28;20475;-67
2024/02/05 10:48:09;;;;;;;4.75;3.30;;;;;;;19.67;100.00;99563.66;5058536;28;20116;-67
2024/02/05 10:50:34;;;;;;;3.95;2.13;;;;;;;19.70;100.00;99580.69;5058264;28;20033;-68
2024/02/05 10:53:01;;;;;;;3.95;2.50;;;;;;;19.76;100.00;99555.28;5060045;28;20507;-67
2024/02/05 10:55:27;;;;;;;6.15;4.32;;;;;;;19.83;100.00;99550.47;5055487;28;20111;-67
2024/02/05 10:57:55;;;;;;;2.05;1.45;;;;;;;19.29;100.00;99466.78;5060286;28;20112;-67
2024/02/05 11:00:21;;;;;;;4.25;2.50;;;;;;;19.51;100.00;99417.91;5056377;28;20534;-67
2024/02/05 11:02:53;;;;;;;2.90;1.73;;;;;;;20.13;100.00;99563.72;5059798;28;20029;-68
2024/02/05 11:05:22;;;;;;;2.92;1.67;;;;;;;20.19;100.00;99576.22;5057404;28;20511;-67
2024/02/05 11:08:05;;;;;;;3.67;1.70;;;;;;;19.08;100.00;99409.00;5056303;28;20044;-68
2024/02/05 11:10:32;;;;;;;2.30;1.70;;;;;;;20.18;100.00;99555.66;5056763;28;20036;-67
2024/02/05 11:12:59;;;;;;;3.20;1.58;;;;;;;19.56;100.00;99488.84;5055751;28;20029;-68
2024/02/05 11:15:29;;;;;;;10.63;6.28;;;;;;;19.53;100.00;99465.03;5056789;28;20035;-67